sensor_id;sensor_type;location;lat;lon;timestamp;pressure;altitude;pressure_sealevel;temperature;humidity
64292;BME280;50628;51.008;13.658;2023-02-28T00:00:37;101046.03;;;0.55;100.00
64292;BME280;50628;51.008;13.658;2023-02-28T00:05:41;101048.03;;;0.39;100.00
64292;BME280;50628;51.008;13.658;2023-02-28T00:10:43;101048.28;;;0.73;100.00
64292;BME280;50628;51.008;13.658;2023-02-28T00:15:45;101044.69;;;0.35;100.00
64292;BME280;50628;51.008;13.658;2023-02-28T00:20:49;101043.31;;;0.16;100.00
64292;BME280;50628;51.008;13.658;2023-02-28T00:25:52;101039.72;;;0.26;100.00
64292;BME280;50628;51.008;13.658;2023-02-28T00:30:54;101038.06;;;0.24;100.00
64292;BME280;50628;51.008;13.658;2023-02-28T00:36:04;101037.38;;;0.14;100.00
64292;BME280;50628;51.008;13.658;2023-02-28T00:41:07;101042.22;;;0.29;100.00
64292;BME280;50628;51.008;13.658;2023-02-28T00:46:09;101041.66;;;0.13;100.00
64292;BME280;50628;51.008;13.658;2023-02-28T00:51:12;101037.88;;;-0.18;100.00
64292;BME280;50628;51.008;13.658;2023-02-28T00:56:14;101037.03;;;-0.19;100.00
64292;BME280;50628;51.008;13.658;2023-02-28T01:01:15;101035.13;;;-0.08;100.00
64292;BME280;50628;51.008;13.658;2023-02-28T01:06:19;101032.19;;;0.17;100.00
64292;BME280;50628;51.008;13.658;2023-02-28T01:11:21;101036.53;;;0.60;100.00
64292;BME280;50628;51.008;13.658;2023-02-28T01:16:23;101027.19;;;0.59;100.00
64292;BME280;50628;51.008;13.658;2023-02-28T01:21:26;101026.69;;;0.38;100.00
64292;BME280;50628;51.008;13.658;2023-02-28T01:26:30;101025.75;;;0.42;100.00
64292;BME280;50628;51.008;13.658;2023-02-28T01:31:32;101024.38;;;0.25;100.00
64292;BME280;50628;51.008;13.658;2023-02-28T01:36:36;101020.78;;;-0.15;100.00
64292;BME280;50628;51.008;13.658;2023-02-28T01:41:38;101026.84;;;-0.22;100.00
64292;BME280;50628;51.008;13.658;2023-02-28T01:46:41;101026.34;;;0.09;100.00
64292;BME280;50628;51.008;13.658;2023-02-28T01:51:46;101017.00;;;0.08;100.00
64292;BME280;50628;51.008;13.658;2023-02-28T01:57:07;101022.19;;;0.03;100.00
64292;BME280;50628;51.008;13.658;2023-02-28T02:02:10;101015.38;;;0.02;100.00
64292;BME280;50628;51.008;13.658;2023-02-28T02:07:14;101015.50;;;-0.06;100.00
64292;BME280;50628;51.008;13.658;2023-02-28T02:12:25;101014.63;;;-0.05;100.00
64292;BME280;50628;51.008;13.658;2023-02-28T02:17:34;101013.41;;;-0.35;100.00
64292;BME280;50628;51.008;13.658;2023-02-28T02:23:01;101013.06;;;-0.13;100.00
64292;BME280;50628;51.008;13.658;2023-02-28T02:28:26;101009.13;;;-0.33;100.00
64292;BME280;50628;51.008;13.658;2023-02-28T02:39:10;101001.28;;;-0.24;100.00
64292;BME280;50628;51.008;13.658;2023-02-28T02:44:19;100999.59;;;0.25;100.00
64292;BME280;50628;51.008;13.658;2023-02-28T02:49:27;101012.50;;;0.20;100.00
64292;BME280;50628;51.008;13.658;2023-02-28T02:54:34;101011.47;;;-0.20;100.00
64292;BME280;50628;51.008;13.658;2023-02-28T02:59:38;101018.41;;;-0.29;100.00
64292;BME280;50628;51.008;13.658;2023-02-28T03:04:43;101012.81;;;-0.54;100.00
64292;BME280;50628;51.008;13.658;2023-02-28T03:09:52;101016.09;;;-0.42;100.00
64292;BME280;50628;51.008;13.658;2023-02-28T03:15:08;101018.53;;;-0.38;100.00
64292;BME280;50628;51.008;13.658;2023-02-28T03:20:19;101012.09;;;-0.08;100.00
64292;BME280;50628;51.008;13.658;2023-02-28T03:25:32;101006.69;;;0.11;100.00
64292;BME280;50628;51.008;13.658;2023-02-28T03:30:42;101008.44;;;0.09;100.00
64292;BME280;50628;51.008;13.658;2023-02-28T03:35:50;101010.44;;;-0.09;100.00
64292;BME280;50628;51.008;13.658;2023-02-28T03:41:00;101005.63;;;-0.29;100.00
64292;BME280;50628;51.008;13.658;2023-02-28T03:46:08;101008.38;;;0.12;100.00
64292;BME280;50628;51.008;13.658;2023-02-28T03:51:15;101013.50;;;-0.41;100.00
64292;BME280;50628;51.008;13.658;2023-02-28T03:56:23;101020.38;;;-0.46;100.00
64292;BME280;50628;51.008;13.658;2023-02-28T04:01:31;101013.03;;;-0.69;100.00
64292;BME280;50628;51.008;13.658;2023-02-28T04:06:36;101021.81;;;-0.85;100.00
64292;BME280;50628;51.008;13.658;2023-02-28T04:11:41;101028.78;;;-1.00;100.00
64292;BME280;50628;51.008;13.658;2023-02-28T04:16:44;101038.06;;;-0.94;100.00
64292;BME280;50628;51.008;13.658;2023-02-28T04:21:47;101035.81;;;-1.17;100.00
64292;BME280;50628;51.008;13.658;2023-02-28T04:26:52;101041.13;;;-1.36;100.00
64292;BME280;50628;51.008;13.658;2023-02-28T04:31:55;101036.03;;;-1.39;100.00
64292;BME280;50628;51.008;13.658;2023-02-28T04:36:58;101046.31;;;-1.46;100.00
64292;BME280;50628;51.008;13.658;2023-02-28T04:42:02;101045.59;;;-1.56;100.00
64292;BME280;50628;51.008;13.658;2023-02-28T04:47:04;101055.84;;;-1.61;100.00
64292;BME280;50628;51.008;13.658;2023-02-28T04:52:06;101056.06;;;-1.87;100.00
64292;BME280;50628;51.008;13.658;2023-02-28T04:57:09;101053.53;;;-1.88;100.00
64292;BME280;50628;51.008;13.658;2023-02-28T05:02:11;101061.31;;;-2.04;100.00
64292;BME280;50628;51.008;13.658;2023-02-28T05:07:13;101063.13;;;-2.23;100.00
64292;BME280;50628;51.008;13.658;2023-02-28T05:12:16;101066.63;;;-2.36;100.00
64292;BME280;50628;51.008;13.658;2023-02-28T05:17:18;101071.75;;;-2.42;100.00
64292;BME280;50628;51.008;13.658;2023-02-28T05:22:20;101069.25;;;-2.48;100.00
64292;BME280;50628;51.008;13.658;2023-02-28T05:27:23;101070.13;;;-2.49;100.00
64292;BME280;50628;51.008;13.658;2023-02-28T05:32:25;101072.72;;;-2.62;100.00
64292;BME280;50628;51.008;13.658;2023-02-28T05:37:27;101069.31;;;-2.54;100.00
64292;BME280;50628;51.008;13.658;2023-02-28T05:42:30;101070.97;;;-2.52;100.00
64292;BME280;50628;51.008;13.658;2023-02-28T05:47:32;101077.81;;;-2.60;100.00
64292;BME280;50628;51.008;13.658;2023-02-28T05:52:34;101082.91;;;-2.58;100.00
64292;BME280;50628;51.008;13.658;2023-02-28T05:57:37;101075.25;;;-2.57;100.00
64292;BME280;50628;51.008;13.658;2023-02-28T06:02:39;101087.19;;;-2.64;100.00
64292;BME280;50628;51.008;13.658;2023-02-28T06:07:41;101092.22;;;-2.57;100.00
64292;BME280;50628;51.008;13.658;2023-02-28T06:12:45;101092.22;;;-2.53;100.00
64292;BME280;50628;51.008;13.658;2023-02-28T06:17:47;101092.22;;;-2.53;100.00
64292;BME280;50628;51.008;13.658;2023-02-28T06:22:49;101101.59;;;-2.56;100.00
64292;BME280;50628;51.008;13.658;2023-02-28T06:27:53;101108.44;;;-2.66;100.00
64292;BME280;50628;51.008;13.658;2023-02-28T06:32:55;101113.56;;;-2.80;100.00
64292;BME280;50628;51.008;13.658;2023-02-28T06:37:57;101131.38;;;-2.75;100.00
64292;BME280;50628;51.008;13.658;2023-02-28T06:43:01;101127.97;;;-2.70;100.00
64292;BME280;50628;51.008;13.658;2023-02-28T06:48:04;101142.41;;;-2.64;100.00
64292;BME280;50628;51.008;13.658;2023-02-28T06:53:06;101146.63;;;-2.60;100.00
64292;BME280;50628;51.008;13.658;2023-02-28T06:58:10;101151.72;;;-2.65;100.00
64292;BME280;50628;51.008;13.658;2023-02-28T07:03:19;101147.44;;;-2.44;100.00
64292;BME280;50628;51.008;13.658;2023-02-28T07:08:21;101144.78;;;-2.29;100.00
64292;BME280;50628;51.008;13.658;2023-02-28T07:13:24;101158.22;;;-2.02;100.00
64292;BME280;50628;51.008;13.658;2023-02-28T07:18:27;101160.66;;;-1.82;100.00
64292;BME280;50628;51.008;13.658;2023-02-28T07:23:29;101166.50;;;-1.63;100.00
64292;BME280;50628;51.008;13.658;2023-02-28T07:28:34;101164.81;;;-1.69;100.00
64292;BME280;50628;51.008;13.658;2023-02-28T07:33:36;101161.41;;;-1.69;100.00
64292;BME280;50628;51.008;13.658;2023-02-28T07:38:39;101165.47;;;-1.44;100.00
64292;BME280;50628;51.008;13.658;2023-02-28T07:43:42;101156.81;;;-1.27;100.00
64292;BME280;50628;51.008;13.658;2023-02-28T07:48:44;101151.66;;;-1.18;100.00
64292;BME280;50628;51.008;13.658;2023-02-28T07:53:46;101155.72;;;-1.02;100.00
64292;BME280;50628;51.008;13.658;2023-02-28T07:58:50;101156.59;;;-1.04;100.00
64292;BME280;50628;51.008;13.658;2023-02-28T08:03:52;101164.03;;;-0.81;100.00
64292;BME280;50628;51.008;13.658;2023-02-28T08:08:55;101149.28;;;-0.58;100.00
64292;BME280;50628;51.008;13.658;2023-02-28T08:13:58;101157.72;;;-0.51;100.00
64292;BME280;50628;51.008;13.658;2023-02-28T08:19:00;101152.69;;;0.05;100.00
64292;BME280;50628;51.008;13.658;2023-02-28T08:24:02;101155.00;;;0.23;100.00
64292;BME280;50628;51.008;13.658;2023-02-28T08:29:06;101158.47;;;0.17;100.00
64292;BME280;50628;51.008;13.658;2023-02-28T08:34:08;101161.59;;;0.38;100.00
64292;BME280;50628;51.008;13.658;2023-02-28T08:39:11;101160.47;;;0.54;100.00
64292;BME280;50628;51.008;13.658;2023-02-28T08:44:14;101162.84;;;0.67;100.00
64292;BME280;50628;51.008;13.658;2023-02-28T08:49:16;101165.22;;;0.77;100.00
64292;BME280;50628;51.008;13.658;2023-02-28T08:54:19;101157.31;;;0.90;100.00
64292;BME280;50628;51.008;13.658;2023-02-28T08:59:22;101158.06;;;0.45;100.00
64292;BME280;50628;51.008;13.658;2023-02-28T09:04:24;101165.06;;;0.85;100.00
64292;BME280;50628;51.008;13.658;2023-02-28T09:09:26;101160.13;;;1.21;100.00
64292;BME280;50628;51.008;13.658;2023-02-28T09:14:29;101151.88;;;1.50;100.00
64292;BME280;50628;51.008;13.658;2023-02-28T09:19:31;101150.53;;;1.74;100.00
64292;BME280;50628;51.008;13.658;2023-02-28T09:24:33;101150.56;;;1.72;100.00
64292;BME280;50628;51.008;13.658;2023-02-28T09:29:37;101151.38;;;1.73;100.00
64292;BME280;50628;51.008;13.658;2023-02-28T09:34:38;101144.41;;;1.38;100.00
64292;BME280;50628;51.008;13.658;2023-02-28T09:39:40;101141.69;;;1.86;100.00
64292;BME280;50628;51.008;13.658;2023-02-28T09:44:44;101136.63;;;1.83;100.00
64292;BME280;50628;51.008;13.658;2023-02-28T09:49:48;101144.59;;;1.70;100.00
64292;BME280;50628;51.008;13.658;2023-02-28T09:54:50;101144.91;;;1.95;100.00
64292;BME280;50628;51.008;13.658;2023-02-28T10:00:02;101150.66;;;2.07;95.55
64292;BME280;50628;51.008;13.658;2023-02-28T10:05:14;101143.25;;;1.93;93.44
64292;BME280;50628;51.008;13.658;2023-02-28T10:10:21;101141.94;;;2.50;96.02
64292;BME280;50628;51.008;13.658;2023-02-28T10:15:30;101135.56;;;2.65;91.73
64292;BME280;50628;51.008;13.658;2023-02-28T10:20:34;101134.91;;;2.56;88.92
64292;BME280;50628;51.008;13.658;2023-02-28T10:25:38;101144.44;;;2.51;85.26
64292;BME280;50628;51.008;13.658;2023-02-28T10:30:44;101148.16;;;1.65;86.51
64292;BME280;50628;51.008;13.658;2023-02-28T10:35:48;101142.81;;;1.34;89.96
64292;BME280;50628;51.008;13.658;2023-02-28T10:40:50;101144.66;;;1.27;89.37
64292;BME280;50628;51.008;13.658;2023-02-28T10:45:57;101140.88;;;1.84;90.22
64292;BME280;50628;51.008;13.658;2023-02-28T10:51:00;101138.91;;;1.56;89.91
64292;BME280;50628;51.008;13.658;2023-02-28T10:56:09;101130.00;;;1.74;90.96
64292;BME280;50628;51.008;13.658;2023-02-28T11:01:18;101128.94;;;2.20;86.70
64292;BME280;50628;51.008;13.658;2023-02-28T11:06:23;101122.88;;;2.23;84.97
64292;BME280;50628;51.008;13.658;2023-02-28T11:11:29;101119.38;;;2.59;86.96
64292;BME280;50628;51.008;13.658;2023-02-28T11:16:35;101110.38;;;3.09;82.97
64292;BME280;50628;51.008;13.658;2023-02-28T11:21:38;101107.84;;;3.07;81.50
64292;BME280;50628;51.008;13.658;2023-02-28T11:26:43;101107.91;;;3.06;80.22
64292;BME280;50628;51.008;13.658;2023-02-28T11:32:01;101101.63;;;3.16;77.34
64292;BME280;50628;51.008;13.658;2023-02-28T11:37:05;101096.44;;;2.86;78.74
64292;BME280;50628;51.008;13.658;2023-02-28T11:42:38;101103.41;;;2.48;81.58
64292;BME280;50628;51.008;13.658;2023-02-28T11:47:48;101082.81;;;3.14;78.07
64292;BME280;50628;51.008;13.658;2023-02-28T11:52:54;101085.25;;;2.87;74.93
64292;BME280;50628;51.008;13.658;2023-02-28T11:58:09;101081.28;;;3.66;76.57
64292;BME280;50628;51.008;13.658;2023-02-28T12:03:27;101077.53;;;3.18;73.48
64292;BME280;50628;51.008;13.658;2023-02-28T12:08:43;101069.75;;;3.78;73.71
64292;BME280;50628;51.008;13.658;2023-02-28T12:13:54;101072.91;;;3.00;73.44
64292;BME280;50628;51.008;13.658;2023-02-28T12:19:07;101060.84;;;2.71;72.98
64292;BME280;50628;51.008;13.658;2023-02-28T12:24:30;101066.06;;;3.58;74.25
64292;BME280;50628;51.008;13.658;2023-02-28T12:29:46;101066.09;;;4.11;70.72
64292;BME280;50628;51.008;13.658;2023-02-28T12:34:56;101068.63;;;3.86;68.60
64292;BME280;50628;51.008;13.658;2023-02-28T12:40:02;101067.41;;;4.23;67.49
64292;BME280;50628;51.008;13.658;2023-02-28T12:45:11;101056.72;;;3.56;70.90
64292;BME280;50628;51.008;13.658;2023-02-28T12:50:17;101062.63;;;3.86;69.32
64292;BME280;50628;51.008;13.658;2023-02-28T12:55:22;101054.59;;;3.40;68.59
64292;BME280;50628;51.008;13.658;2023-02-28T13:00:29;101050.75;;;3.82;68.12
64292;BME280;50628;51.008;13.658;2023-02-28T13:06:08;101036.34;;;3.76;68.12
64292;BME280;50628;51.008;13.658;2023-02-28T13:11:25;101053.22;;;3.57;65.61
64292;BME280;50628;51.008;13.658;2023-02-28T13:16:27;101051.59;;;4.84;64.71
64292;BME280;50628;51.008;13.658;2023-02-28T13:21:42;101049.31;;;5.00;62.77
64292;BME280;50628;51.008;13.658;2023-02-28T13:32:34;101050.41;;;4.69;65.68
64292;BME280;50628;51.008;13.658;2023-02-28T13:37:43;101048.50;;;4.98;65.01
64292;BME280;50628;51.008;13.658;2023-02-28T13:42:47;101042.78;;;4.41;65.26
64292;BME280;50628;51.008;13.658;2023-02-28T13:47:55;101032.84;;;5.26;65.57
64292;BME280;50628;51.008;13.658;2023-02-28T13:58:51;101029.84;;;5.59;59.72
64292;BME280;50628;51.008;13.658;2023-02-28T14:04:14;101027.00;;;5.45;61.90
64292;BME280;50628;51.008;13.658;2023-02-28T14:09:27;101027.06;;;4.96;62.37
64292;BME280;50628;51.008;13.658;2023-02-28T14:14:55;101017.66;;;3.69;65.36
64292;BME280;50628;51.008;13.658;2023-02-28T14:20:00;101019.69;;;4.87;65.64
64292;BME280;50628;51.008;13.658;2023-02-28T14:25:16;101009.75;;;5.45;61.82
64292;BME280;50628;51.008;13.658;2023-02-28T14:30:40;101006.44;;;4.96;61.10
64292;BME280;50628;51.008;13.658;2023-02-28T14:35:58;101008.47;;;5.99;60.63
64292;BME280;50628;51.008;13.658;2023-02-28T14:41:06;101011.63;;;6.06;58.98
64292;BME280;50628;51.008;13.658;2023-02-28T14:46:14;100998.50;;;5.68;59.00
64292;BME280;50628;51.008;13.658;2023-02-28T14:51:20;100994.69;;;6.60;58.71
64292;BME280;50628;51.008;13.658;2023-02-28T14:56:27;100994.84;;;6.76;56.81
64292;BME280;50628;51.008;13.658;2023-02-28T15:01:31;101012.44;;;5.20;57.37
64292;BME280;50628;51.008;13.658;2023-02-28T15:06:34;101002.34;;;4.90;58.76
64292;BME280;50628;51.008;13.658;2023-02-28T15:11:38;101004.91;;;5.59;57.36
64292;BME280;50628;51.008;13.658;2023-02-28T15:16:42;101016.03;;;5.38;59.78
64292;BME280;50628;51.008;13.658;2023-02-28T15:21:49;101003.09;;;5.82;59.67
64292;BME280;50628;51.008;13.658;2023-02-28T15:26:57;101005.41;;;5.90;57.27
64292;BME280;50628;51.008;13.658;2023-02-28T15:32:01;101014.50;;;6.00;57.46
64292;BME280;50628;51.008;13.658;2023-02-28T15:37:24;101000.00;;;5.96;57.57
64292;BME280;50628;51.008;13.658;2023-02-28T15:42:29;101008.28;;;6.04;58.24
64292;BME280;50628;51.008;13.658;2023-02-28T15:47:32;101006.03;;;6.77;56.55
64292;BME280;50628;51.008;13.658;2023-02-28T15:52:38;101019.63;;;4.65;61.40
64292;BME280;50628;51.008;13.658;2023-02-28T15:57:42;101013.72;;;3.58;68.54
64292;BME280;50628;51.008;13.658;2023-02-28T16:02:47;101015.50;;;2.68;73.58
64292;BME280;50628;51.008;13.658;2023-02-28T16:07:49;101019.41;;;3.11;74.49
64292;BME280;50628;51.008;13.658;2023-02-28T16:12:53;101010.75;;;2.84;77.40
64292;BME280;50628;51.008;13.658;2023-02-28T16:17:56;101012.09;;;3.27;79.42
64292;BME280;50628;51.008;13.658;2023-02-28T16:22:58;101018.94;;;3.28;79.39
64292;BME280;50628;51.008;13.658;2023-02-28T16:28:04;101004.44;;;3.25;80.58
64292;BME280;50628;51.008;13.658;2023-02-28T16:33:09;101014.78;;;3.22;80.53
64292;BME280;50628;51.008;13.658;2023-02-28T16:38:11;101017.97;;;3.02;86.42
64292;BME280;50628;51.008;13.658;2023-02-28T16:43:17;101007.19;;;2.58;100.00
64292;BME280;50628;51.008;13.658;2023-02-28T16:48:21;101021.78;;;2.25;100.00
64292;BME280;50628;51.008;13.658;2023-02-28T16:53:23;101014.75;;;1.99;100.00
64292;BME280;50628;51.008;13.658;2023-02-28T16:58:26;101020.19;;;1.85;100.00
64292;BME280;50628;51.008;13.658;2023-02-28T17:03:28;101029.56;;;1.50;100.00
64292;BME280;50628;51.008;13.658;2023-02-28T17:08:31;101025.44;;;1.43;100.00
64292;BME280;50628;51.008;13.658;2023-02-28T17:13:34;101033.47;;;1.28;100.00
64292;BME280;50628;51.008;13.658;2023-02-28T17:18:36;101028.38;;;1.26;100.00
64292;BME280;50628;51.008;13.658;2023-02-28T17:23:39;101032.13;;;1.10;100.00
64292;BME280;50628;51.008;13.658;2023-02-28T17:28:42;101037.47;;;1.01;100.00
64292;BME280;50628;51.008;13.658;2023-02-28T17:33:44;101037.34;;;1.07;100.00
64292;BME280;50628;51.008;13.658;2023-02-28T17:38:46;101042.59;;;1.01;100.00
64292;BME280;50628;51.008;13.658;2023-02-28T17:43:50;101033.50;;;0.84;100.00
64292;BME280;50628;51.008;13.658;2023-02-28T17:48:53;101041.22;;;0.83;100.00
64292;BME280;50628;51.008;13.658;2023-02-28T17:53:54;101046.59;;;0.71;100.00
64292;BME280;50628;51.008;13.658;2023-02-28T17:58:58;101027.84;;;0.69;100.00
64292;BME280;50628;51.008;13.658;2023-02-28T18:04:00;101023.72;;;0.61;100.00
64292;BME280;50628;51.008;13.658;2023-02-28T18:09:02;101014.66;;;0.43;100.00
64292;BME280;50628;51.008;13.658;2023-02-28T18:14:05;101021.66;;;0.35;100.00
64292;BME280;50628;51.008;13.658;2023-02-28T18:19:07;101029.19;;;0.41;100.00
64292;BME280;50628;51.008;13.658;2023-02-28T18:24:15;101024.78;;;0.50;100.00
64292;BME280;50628;51.008;13.658;2023-02-28T18:29:20;101028.03;;;0.58;100.00
64292;BME280;50628;51.008;13.658;2023-02-28T18:34:23;101027.34;;;0.50;100.00
64292;BME280;50628;51.008;13.658;2023-02-28T18:39:26;101022.13;;;0.56;100.00
64292;BME280;50628;51.008;13.658;2023-02-28T18:44:29;101024.97;;;0.39;100.00
64292;BME280;50628;51.008;13.658;2023-02-28T18:49:31;101031.06;;;0.32;100.00
64292;BME280;50628;51.008;13.658;2023-02-28T18:54:35;101031.28;;;0.21;100.00
64292;BME280;50628;51.008;13.658;2023-02-28T18:59:38;101025.34;;;0.17;100.00
64292;BME280;50628;51.008;13.658;2023-02-28T19:04:40;101020.22;;;0.19;100.00
64292;BME280;50628;51.008;13.658;2023-02-28T19:09:42;101026.69;;;0.38;100.00
64292;BME280;50628;51.008;13.658;2023-02-28T19:14:45;101030.59;;;0.11;100.00
64292;BME280;50628;51.008;13.658;2023-02-28T19:19:47;101029.03;;;0.03;100.00
64292;BME280;50628;51.008;13.658;2023-02-28T19:24:49;101037.69;;;-0.08;100.00
64292;BME280;50628;51.008;13.658;2023-02-28T19:29:52;101035.44;;;-0.25;100.00
64292;BME280;50628;51.008;13.658;2023-02-28T19:34:55;101034.78;;;-0.39;100.00
64292;BME280;50628;51.008;13.658;2023-02-28T19:39:56;101035.50;;;-0.31;100.00
64292;BME280;50628;51.008;13.658;2023-02-28T19:45:00;101031.34;;;-0.38;100.00
64292;BME280;50628;51.008;13.658;2023-02-28T19:50:03;101035.78;;;-0.48;100.00
64292;BME280;50628;51.008;13.658;2023-02-28T19:55:06;101037.31;;;-0.37;100.00
64292;BME280;50628;51.008;13.658;2023-02-28T20:00:13;101048.50;;;-0.46;100.00
64292;BME280;50628;51.008;13.658;2023-02-28T20:05:16;101052.28;;;-0.70;100.00
64292;BME280;50628;51.008;13.658;2023-02-28T20:10:18;101050.56;;;-0.71;100.00
64292;BME280;50628;51.008;13.658;2023-02-28T20:15:21;101065.84;;;-0.67;100.00
64292;BME280;50628;51.008;13.658;2023-02-28T20:20:23;101056.47;;;-0.66;100.00
64292;BME280;50628;51.008;13.658;2023-02-28T20:25:25;101059.75;;;-0.56;100.00
64292;BME280;50628;51.008;13.658;2023-02-28T20:30:28;101047.28;;;-0.81;100.00
64292;BME280;50628;51.008;13.658;2023-02-28T20:35:30;101055.88;;;-0.87;100.00
64292;BME280;50628;51.008;13.658;2023-02-28T20:40:33;101056.81;;;-0.94;100.00
64292;BME280;50628;51.008;13.658;2023-02-28T20:45:36;101061.06;;;-0.93;100.00
64292;BME280;50628;51.008;13.658;2023-02-28T20:50:39;101048.25;;;-0.90;100.00
64292;BME280;50628;51.008;13.658;2023-02-28T20:55:41;101054.38;;;-1.03;100.00
64292;BME280;50628;51.008;13.658;2023-02-28T21:00:44;101054.38;;;-1.04;100.00
64292;BME280;50628;51.008;13.658;2023-02-28T21:05:47;101059.72;;;-1.24;100.00
64292;BME280;50628;51.008;13.658;2023-02-28T21:10:49;101057.91;;;-1.16;100.00
64292;BME280;50628;51.008;13.658;2023-02-28T21:15:52;101057.13;;;-1.20;100.00
64292;BME280;50628;51.008;13.658;2023-02-28T21:20:59;101066.59;;;-1.28;100.00
64292;BME280;50628;51.008;13.658;2023-02-28T21:26:02;101062.78;;;-0.95;100.00
64292;BME280;50628;51.008;13.658;2023-02-28T21:31:07;101052.88;;;-1.21;100.00
64292;BME280;50628;51.008;13.658;2023-02-28T21:36:11;101059.88;;;-1.38;100.00
64292;BME280;50628;51.008;13.658;2023-02-28T21:41:18;101052.13;;;-1.32;100.00
64292;BME280;50628;51.008;13.658;2023-02-28T21:46:23;101058.41;;;-1.61;100.00
64292;BME280;50628;51.008;13.658;2023-02-28T21:51:27;101078.94;;;-1.73;100.00
64292;BME280;50628;51.008;13.658;2023-02-28T21:56:32;101066.31;;;-1.93;100.00
64292;BME280;50628;51.008;13.658;2023-02-28T22:01:37;101068.06;;;-1.98;100.00
64292;BME280;50628;51.008;13.658;2023-02-28T22:06:40;101066.38;;;-2.02;100.00
64292;BME280;50628;51.008;13.658;2023-02-28T22:11:42;101052.00;;;-2.12;100.00
64292;BME280;50628;51.008;13.658;2023-02-28T22:16:45;101053.78;;;-2.19;100.00
64292;BME280;50628;51.008;13.658;2023-02-28T22:21:47;101063.09;;;-2.20;100.00
64292;BME280;50628;51.008;13.658;2023-02-28T22:26:49;101069.94;;;-2.22;100.00
64292;BME280;50628;51.008;13.658;2023-02-28T22:31:52;101066.59;;;-2.33;100.00
64292;BME280;50628;51.008;13.658;2023-02-28T22:36:54;101051.34;;;-2.39;100.00
64292;BME280;50628;51.008;13.658;2023-02-28T22:41:57;101051.38;;;-2.44;100.00
64292;BME280;50628;51.008;13.658;2023-02-28T22:47:01;101057.34;;;-2.48;100.00
64292;BME280;50628;51.008;13.658;2023-02-28T22:52:03;101059.91;;;-2.48;100.00
64292;BME280;50628;51.008;13.658;2023-02-28T22:57:05;101065.00;;;-2.52;100.00
64292;BME280;50628;51.008;13.658;2023-02-28T23:02:08;101062.50;;;-2.54;100.00
64292;BME280;50628;51.008;13.658;2023-02-28T23:07:10;101065.03;;;-2.49;100.00
64292;BME280;50628;51.008;13.658;2023-02-28T23:12:14;101066.69;;;-2.44;100.00
64292;BME280;50628;51.008;13.658;2023-02-28T23:17:17;101060.78;;;-2.55;100.00
64292;BME280;50628;51.008;13.658;2023-02-28T23:22:19;101073.63;;;-2.72;100.00
64292;BME280;50628;51.008;13.658;2023-02-28T23:27:21;101072.00;;;-2.87;100.00
64292;BME280;50628;51.008;13.658;2023-02-28T23:32:24;101080.47;;;-2.88;100.00
64292;BME280;50628;51.008;13.658;2023-02-28T23:37:26;101067.78;;;-2.92;100.00
64292;BME280;50628;51.008;13.658;2023-02-28T23:42:28;101081.31;;;-2.81;100.00
64292;BME280;50628;51.008;13.658;2023-02-28T23:47:32;101083.91;;;-2.92;100.00
64292;BME280;50628;51.008;13.658;2023-02-28T23:52:34;101081.25;;;-2.75;100.00
64292;BME280;50628;51.008;13.658;2023-02-28T23:57:36;101082.16;;;-2.82;100.00
